Time;durP1;ratioP1;P1;durP2;ratioP2;P2;SDS_P1;SDS_P2;PMS_P1;PMS_P2;Temp;Humidity;BMP_temperature;BMP_pressure;BME280_temperature;BME280_humidity;BME280_pressure;Samples;Min_cycle;Max_cycle;Signal;HPM_P1;HPM_P2
2023/06/27 00:00:39;;;;;;;5.47;2.40;;;;;;;;;;12984016;19;20018;-65
2023/06/27 00:05:16;;;;;;;3.80;2.33;;;;;;;;;;12985124;19;20604;-65
2023/06/27 00:09:34;;;;;;;;;;;;;;;;;;12985861;19;20022;-65
2023/06/27 00:13:51;;;;;;;4.20;2.50;;;;;;;;;;12983860;19;20243;-65
2023/06/27 00:18:10;;;;;;;;;;;;;;;;;;12983985;19;20014;-65
2023/06/27 00:22:29;;;;;;;4.00;2.60;;;;;;;;;;12983795;19;19941;-65
2023/06/27 00:26:46;;;;;;;3.97;2.53;;;;;;;;;;12983218;19;20018;-65
2023/06/27 00:31:05;;;;;;;;;;;;;;;;;;12983385;19;20026;-65
2023/06/27 00:35:23;;;;;;;7.95;2.75;;;;;;;;;;12982981;19;19935;-65
2023/06/27 00:39:41;;;;;;;4.18;2.50;;;;;;;;;;12983155;19;20015;-65
2023/06/27 00:43:59;;;;;;;4.70;2.90;;;;;;;;;;12982273;19;20021;-65
2023/06/27 00:48:17;;;;;;;5.30;2.95;;;;;;;;;;12980559;19;20015;-65
2023/06/27 00:52:36;;;;;;;4.82;2.40;;;;;;;;;;12981925;19;20014;-65
2023/06/27 00:56:54;;;;;;;5.85;2.95;;;;;;;;;;12980715;19;20018;-65
2023/06/27 01:01:11;;;;;;;;;;;;;;;;;;12983174;19;20023;-65
2023/06/27 01:05:30;;;;;;;5.70;3.22;;;;;;;;;;12996609;19;19925;-65
2023/06/27 01:09:52;;;;;;;8.30;2.65;;;;;;;;;;12993500;19;20037;-65
2023/06/27 01:14:12;;;;;;;4.05;2.90;;;;;;;;;;12992855;19;20010;-65
2023/06/27 01:18:32;;;;;;;5.07;3.30;;;;;;;;;;12990598;19;20021;-65
2023/06/27 01:23:07;;;;;;;6.25;3.28;;;;;;;;;;12992375;19;20014;-65
2023/06/27 01:27:28;;;;;;;7.82;3.63;;;;;;;;;;12991412;19;20010;-65
2023/06/27 01:32:27;;;;;;;6.43;3.47;;;;;;;;;;12992414;19;20021;-66
2023/06/27 01:37:02;;;;;;;5.90;3.70;;;;;;;;;;12989904;19;20025;-65
2023/06/27 01:41:23;;;;;;;9.68;4.13;;;;;;;;;;12990992;19;20010;-66
2023/06/27 01:45:40;;;;;;;8.38;3.92;;;;;;;;;;12990612;19;20014;-66
2023/06/27 01:49:59;;;;;;;8.68;3.40;;;;;;;;;;12990145;19;20010;-66
2023/06/27 01:54:16;;;;;;;6.28;3.15;;;;;;;;;;12988991;19;20014;-66
2023/06/27 01:58:34;;;;;;;4.07;2.67;;;;;;;;;;12991577;19;20502;-66
2023/06/27 02:02:51;;;;;;;6.05;3.50;;;;;;;;;;12990559;19;20014;-65
2023/06/27 02:07:09;;;;;;;;;;;;;;;;;;12990631;19;20011;-65
2023/06/27 02:11:27;;;;;;;7.13;3.25;;;;;;;;;;12990375;19;20389;-65
2023/06/27 02:15:44;;;;;;;6.43;3.65;;;;;;;;;;12988169;19;20014;-65
2023/06/27 02:20:03;;;;;;;5.60;3.67;;;;;;;;;;12991253;19;20014;-65
2023/06/27 02:24:21;;;;;;;9.82;4.63;;;;;;;;;;12989975;19;20361;-65
2023/06/27 02:28:38;;;;;;;8.15;4.18;;;;;;;;;;12989436;19;20015;-65
2023/06/27 02:32:56;;;;;;;10.27;5.10;;;;;;;;;;12988398;19;20496;-65
2023/06/27 02:37:14;;;;;;;9.40;4.72;;;;;;;;;;12988771;19;20489;-65
2023/06/27 02:41:31;;;;;;;8.20;5.03;;;;;;;;;;12988328;19;20014;-65
2023/06/27 02:45:50;;;;;;;7.50;4.38;;;;;;;;;;12988024;19;20026;-65
2023/06/27 02:50:08;;;;;;;8.50;4.55;;;;;;;;;;12987095;19;20014;-65
2023/06/27 02:54:25;;;;;;;7.85;5.15;;;;;;;;;;12985540;19;20022;-65
2023/06/27 02:58:43;;;;;;;8.05;4.78;;;;;;;;;;12988231;19;20019;-65
2023/06/27 03:03:01;;;;;;;;;;;;;;;;;;12988017;19;20015;-69
2023/06/27 03:07:18;;;;;;;8.55;4.55;;;;;;;;;;12986992;19;19933;-65
2023/06/27 03:11:36;;;;;;;;;;;;;;;;;;12987988;19;20468;-65
2023/06/27 03:15:54;;;;;;;6.97;4.20;;;;;;;;;;12987460;19;19918;-65
2023/06/27 03:20:11;;;;;;;5.18;3.97;;;;;;;;;;12986428;19;20354;-65
2023/06/27 03:24:29;;;;;;;5.88;4.25;;;;;;;;;;12986637;19;20022;-66
2023/06/27 03:28:47;;;;;;;6.72;4.47;;;;;;;;;;12985678;19;20046;-66
2023/06/27 03:33:04;;;;;;;;;;;;;;;;;;12985223;19;20011;-66
2023/06/27 03:37:22;;;;;;;7.32;4.78;;;;;;;;;;12985507;19;19918;-65
2023/06/27 03:41:40;;;;;;;7.30;4.80;;;;;;;;;;12985771;19;20025;-66
2023/06/27 03:45:57;;;;;;;;;;;;;;;;;;12985855;19;20021;-66
2023/06/27 03:50:15;;;;;;;7.00;4.75;;;;;;;;;;12985378;19;19930;-66
2023/06/27 03:54:33;;;;;;;6.15;4.40;;;;;;;;;;12984122;19;20030;-66
2023/06/27 03:58:51;;;;;;;7.10;4.32;;;;;;;;;;12982452;19;20031;-64
2023/06/27 04:03:08;;;;;;;8.38;5.20;;;;;;;;;;12982795;19;20461;-65
2023/06/27 04:07:26;;;;;;;7.80;4.88;;;;;;;;;;12984294;19;20437;-65
2023/06/27 04:11:44;;;;;;;6.05;4.78;;;;;;;;;;12980977;19;20366;-64
2023/06/27 04:16:01;;;;;;;6.63;4.90;;;;;;;;;;12981728;19;20014;-65
2023/06/27 04:20:19;;;;;;;6.53;4.85;;;;;;;;;;12982488;19;20021;-65
2023/06/27 04:24:36;;;;;;;6.60;4.72;;;;;;;;;;12982849;19;20030;-65
2023/06/27 04:28:54;;;;;;;7.53;5.03;;;;;;;;;;12982599;19;20621;-64
2023/06/27 04:33:13;;;;;;;;;;;;;;;;;;12981856;19;20039;-65
2023/06/27 04:37:30;;;;;;;5.90;4.13;;;;;;;;;;12981390;19;20365;-65
2023/06/27 04:41:48;;;;;;;;;;;;;;;;;;12982001;19;20469;-65
2023/06/27 04:46:07;;;;;;;5.68;3.25;;;;;;;;;;12982353;19;20370;-65
2023/06/27 04:50:24;;;;;;;;;;;;;;;;;;12983304;19;20014;-65
2023/06/27 04:54:42;;;;;;;4.32;3.30;;;;;;;;;;12982472;19;19922;-65
2023/06/27 04:59:00;;;;;;;5.07;2.85;;;;;;;;;;12977158;19;20366;-65
2023/06/27 05:03:18;;;;;;;8.80;3.15;;;;;;;;;;12979958;19;20496;-65
2023/06/27 05:07:36;;;;;;;4.30;3.03;;;;;;;;;;12979609;19;20014;-65
2023/06/27 05:11:53;;;;;;;3.63;2.40;;;;;;;;;;12980666;19;20365;-65
2023/06/27 05:16:11;;;;;;;3.90;2.65;;;;;;;;;;12979490;19;20019;-65
2023/06/27 05:20:28;;;;;;;3.88;3.00;;;;;;;;;;12979937;19;20576;-65
2023/06/27 05:24:46;;;;;;;3.85;2.83;;;;;;;;;;12979784;19;20021;-65
2023/06/27 05:29:03;;;;;;;4.15;2.35;;;;;;;;;;12979375;19;20025;-65
2023/06/27 05:33:21;;;;;;;4.68;2.60;;;;;;;;;;12978355;19;20022;-65
2023/06/27 05:37:39;;;;;;;5.88;2.65;;;;;;;;;;12980537;19;20014;-65
2023/06/27 05:41:56;;;;;;;;;;;;;;;;;;12979779;19;20003;-65
2023/06/27 05:46:14;;;;;;;3.80;2.25;;;;;;;;;;12979324;19;19927;-66
2023/06/27 05:50:32;;;;;;;;;;;;;;;;;;12991404;19;20014;-66
2023/06/27 05:54:50;;;;;;;3.15;1.58;;;;;;;;;;12991103;19;20258;-66
2023/06/27 05:59:08;;;;;;;3.65;1.55;;;;;;;;;;12989955;19;20029;-66
2023/06/27 06:03:26;;;;;;;2.67;1.83;;;;;;;;;;12990631;19;20071;-66
2023/06/27 06:07:44;;;;;;;4.57;1.92;;;;;;;;;;12990613;19;20038;-66
2023/06/27 06:12:02;;;;;;;3.88;2.15;;;;;;;;;;12990200;19;20409;-66
2023/06/27 06:16:20;;;;;;;5.55;2.05;;;;;;;;;;12986457;19;20007;-66
2023/06/27 06:20:37;;;;;;;3.50;1.92;;;;;;;;;;12989854;19;20524;-66
2023/06/27 06:24:55;;;;;;;;;;;;;;;;;;12989306;19;20078;-66
2023/06/27 06:29:13;;;;;;;5.72;1.90;;;;;;;;;;12989046;19;20346;-67
2023/06/27 06:33:31;;;;;;;5.05;1.77;;;;;;;;;;12988354;19;20018;-67
2023/06/27 06:37:49;;;;;;;5.25;1.80;;;;;;;;;;12988142;19;20038;-67
2023/06/27 06:42:06;;;;;;;;;;;;;;;;;;12988561;19;20338;-67
2023/06/27 06:46:24;;;;;;;3.75;2.13;;;;;;;;;;12988004;19;19945;-67
2023/06/27 06:50:42;;;;;;;5.32;2.25;;;;;;;;;;12986969;19;20019;-67
2023/06/27 06:54:59;;;;;;;2.65;1.35;;;;;;;;;;12987787;19;20038;-67
2023/06/27 06:59:17;;;;;;;3.58;1.85;;;;;;;;;;12986682;19;20491;-66
2023/06/27 07:03:35;;;;;;;3.95;1.90;;;;;;;;;;12987312;19;20041;-66
2023/06/27 07:07:52;;;;;;;;;;;;;;;;;;12987585;19;20015;-66
2023/06/27 07:12:10;;;;;;;3.67;2.15;;;;;;;;;;12986175;19;20337;-66
2023/06/27 07:16:27;;;;;;;3.03;1.55;;;;;;;;;;12985905;19;20018;-66
2023/06/27 07:20:45;;;;;;;;;;;;;;;;;;12986888;19;20010;-66
2023/06/27 07:25:03;;;;;;;7.07;1.90;;;;;;;;;;12985973;19;19921;-67
2023/06/27 07:29:21;;;;;;;;;;;;;;;;;;12984612;19;20014;-67
2023/06/27 07:33:39;;;;;;;7.43;2.20;;;;;;;;;;12985090;19;19941;-67
2023/06/27 07:37:57;;;;;;;;;;;;;;;;;;12985404;19;20010;-66
2023/06/27 07:42:16;;;;;;;4.10;1.90;;;;;;;;;;12984564;19;20251;-67
2023/06/27 07:46:34;;;;;;;6.25;2.25;;;;;;;;;;12984628;19;20010;-67
2023/06/27 07:50:52;;;;;;;2.05;1.42;;;;;;;;;;12984805;19;20373;-68
2023/06/27 07:55:10;;;;;;;;;;;;;;;;;;12984498;19;20011;-66
2023/06/27 07:59:27;;;;;;;2.65;1.92;;;;;;;;;;12984482;19;20266;-66
2023/06/27 08:03:45;;;;;;;3.15;2.10;;;;;;;;;;12983192;19;20481;-67
2023/06/27 08:08:09;;;;;;;3.45;2.25;;;;;;;;;;12981463;19;20018;-66
2023/06/27 08:12:26;;;;;;;;;;;;;;;;;;12981647;19;20010;-66
2023/06/27 08:16:45;;;;;;;2.90;1.95;;;;;;;;;;12983462;19;19919;-67
2023/06/27 08:21:04;;;;;;;3.20;1.80;;;;;;;;;;12981219;19;20034;-66
2023/06/27 08:25:21;;;;;;;5.03;2.33;;;;;;;;;;12983217;19;20018;-66
2023/06/27 08:29:40;;;;;;;4.05;2.30;;;;;;;;;;12981045;19;20029;-66
2023/06/27 08:34:01;;;;;;;3.15;1.90;;;;;;;;;;12981807;19;20465;-66
2023/06/27 08:38:18;;;;;;;;;;;;;;;;;;12981129;19;20025;-66
2023/06/27 08:42:38;;;;;;;4.40;2.55;;;;;;;;;;12981258;19;19942;-65
2023/06/27 08:47:08;;;;;;;4.23;2.33;;;;;;;;;;12979974;19;20011;-66
2023/06/27 08:51:27;;;;;;;5.40;2.60;;;;;;;;;;12981161;19;20023;-66
2023/06/27 08:55:55;;;;;;;3.42;1.80;;;;;;;;;;12979708;19;20014;-67
2023/06/27 09:00:20;;;;;;;3.33;1.85;;;;;;;;;;12980181;19;20756;-66
2023/06/27 09:04:41;;;;;;;3.88;2.00;;;;;;;;;;12978686;19;20030;-66
2023/06/27 09:08:59;;;;;;;2.88;2.10;;;;;;;;;;12978836;19;20014;-66
2023/06/27 09:13:19;;;;;;;3.03;1.85;;;;;;;;;;12979350;19;20014;-66
2023/06/27 09:17:38;;;;;;;4.18;1.80;;;;;;;;;;12977054;19;20015;-69
2023/06/27 09:22:23;;;;;;;4.60;2.10;;;;;;;;;;12982099;19;20017;-67
2023/06/27 09:26:41;;;;;;;2.95;1.70;;;;;;;;;;12992641;19;20501;-66
2023/06/27 09:30:58;;;;;;;;;;;;;;;;;;12992011;19;20025;-66
2023/06/27 09:35:17;;;;;;;3.92;1.60;;;;;;;;;;12992004;19;20353;-66
2023/06/27 09:39:55;;;;;;;3.90;1.55;;;;;;;;;;12990995;19;20015;-66
2023/06/27 09:44:24;;;;;;;4.68;2.00;;;;;;;;;;12990968;19;20476;-67
2023/06/27 09:48:43;;;;;;;3.60;1.70;;;;;;;;;;12991681;19;20472;-66
2023/06/27 09:53:03;;;;;;;3.58;1.77;;;;;;;;;;12992932;19;20021;-67
2023/06/27 09:57:23;;;;;;;5.03;2.17;;;;;;;;;;12990287;19;20034;-66
2023/06/27 10:01:40;;;;;;;4.97;1.92;;;;;;;;;;12987996;19;20018;-67
2023/06/27 10:05:59;;;;;;;3.38;1.08;;;;;;;;;;12987785;19;20506;-66
2023/06/27 10:10:29;;;;;;;4.03;1.33;;;;;;;;;;12987345;19;20344;-66
2023/06/27 10:14:48;;;;;;;2.58;1.30;;;;;;;;;;12989807;19;20374;-66
2023/06/27 10:19:06;;;;;;;7.45;1.55;;;;;;;;;;12988082;19;20015;-66
2023/06/27 10:23:24;;;;;;;;;;;;;;;;;;12988092;19;20014;-66
2023/06/27 10:27:42;;;;;;;3.75;1.20;;;;;;;;;;12989078;19;20292;-66
2023/06/27 10:32:00;;;;;;;5.80;1.10;;;;;;;;;;12986623;19;20404;-66
2023/06/27 10:36:18;;;;;;;2.28;1.00;;;;;;;;;;12985595;19;20019;-66
2023/06/27 10:41:09;;;;;;;;;;;;;;;;;;12989419;19;20025;-67
2023/06/27 10:45:27;;;;;;;1.65;0.80;;;;;;;;;;12989482;19;20463;-65
2023/06/27 10:49:46;;;;;;;;;;;;;;;;;;12988692;19;20014;-66
2023/06/27 10:54:12;;;;;;;4.53;1.23;;;;;;;;;;12987032;19;19919;-66
2023/06/27 10:58:44;;;;;;;1.67;0.68;;;;;;;;;;12987643;19;20029;-65
2023/06/27 11:03:06;;;;;;;5.47;1.23;;;;;;;;;;12987325;19;20014;-66
2023/06/27 11:07:25;;;;;;;3.10;1.30;;;;;;;;;;12986643;19;20018;-66
2023/06/27 11:11:54;;;;;;;2.00;1.10;;;;;;;;;;12985170;19;20030;-66
2023/06/27 11:16:12;;;;;;;2.78;1.00;;;;;;;;;;12986392;19;20022;-66
2023/06/27 11:20:31;;;;;;;2.25;0.90;;;;;;;;;;12984202;19;20025;-64
2023/06/27 11:24:49;;;;;;;2.65;1.17;;;;;;;;;;12986386;19;20012;-68
2023/06/27 11:29:06;;;;;;;2.47;1.10;;;;;;;;;;12983992;19;20026;-67
2023/06/27 11:33:25;;;;;;;1.77;1.02;;;;;;;;;;12985253;19;20010;-65
2023/06/27 11:37:43;;;;;;;4.68;1.15;;;;;;;;;;12983177;19;20014;-65
2023/06/27 11:42:00;;;;;;;5.53;1.60;;;;;;;;;;12986061;19;20018;-65
2023/06/27 11:46:19;;;;;;;3.00;1.15;;;;;;;;;;12982591;19;20026;-66
2023/06/27 11:50:56;;;;;;;5.57;0.85;;;;;;;;;;12984443;19;20015;-66
2023/06/27 11:55:14;;;;;;;3.33;1.10;;;;;;;;;;12984000;19;20018;-65
2023/06/27 11:59:32;;;;;;;3.13;0.88;;;;;;;;;;12984116;19;20026;-65
2023/06/27 12:03:51;;;;;;;7.53;1.30;;;;;;;;;;12984240;19;20010;-64
2023/06/27 12:08:09;;;;;;;4.95;1.27;;;;;;;;;;12984081;19;20448;-65
2023/06/27 12:12:35;;;;;;;1.23;0.55;;;;;;;;;;12984535;19;20743;-65
2023/06/27 12:16:53;;;;;;;5.10;0.93;;;;;;;;;;12983305;19;20014;-65
2023/06/27 12:21:11;;;;;;;1.63;0.80;;;;;;;;;;12982854;19;20006;-65
2023/06/27 12:25:28;;;;;;;1.17;1.00;;;;;;;;;;12982850;19;20876;-65
2023/06/27 12:29:46;;;;;;;2.42;0.77;;;;;;;;;;12982466;19;20022;-65
2023/06/27 12:34:04;;;;;;;;;;;;;;;;;;12980874;19;20429;-65
2023/06/27 12:38:22;;;;;;;4.07;1.05;;;;;;;;;;12982530;19;19934;-65
2023/06/27 12:42:41;;;;;;;5.75;1.30;;;;;;;;;;12981896;19;20018;-66
2023/06/27 12:46:59;;;;;;;4.18;0.70;;;;;;;;;;12981876;19;20015;-65
2023/06/27 12:51:17;;;;;;;3.50;1.08;;;;;;;;;;12981489;19;20014;-66
2023/06/27 12:55:37;;;;;;;0.93;0.55;;;;;;;;;;12980489;19;20014;-65
2023/06/27 12:59:55;;;;;;;1.60;0.80;;;;;;;;;;12990991;19;20014;-66
2023/06/27 13:04:12;;;;;;;2.85;0.98;;;;;;;;;;12993118;19;21201;-65
2023/06/27 13:08:30;;;;;;;1.80;0.73;;;;;;;;;;12992883;19;20022;-65
2023/06/27 13:12:48;;;;;;;1.90;0.80;;;;;;;;;;12993180;19;20014;-66
2023/06/27 13:17:06;;;;;;;1.25;0.45;;;;;;;;;;12991713;19;20014;-65
2023/06/27 13:21:23;;;;;;;2.55;0.85;;;;;;;;;;12993085;19;20414;-65
2023/06/27 13:25:42;;;;;;;5.07;1.10;;;;;;;;;;12992869;19;20022;-64
2023/06/27 13:30:00;;;;;;;1.70;0.70;;;;;;;;;;12992267;19;20481;-65
2023/06/27 13:34:20;;;;;;;2.25;0.88;;;;;;;;;;12991820;19;20440;-65
2023/06/27 13:38:40;;;;;;;2.78;0.60;;;;;;;;;;12991532;19;20469;-65
2023/06/27 13:42:57;;;;;;;3.38;1.10;;;;;;;;;;12991933;19;20021;-65
2023/06/27 13:47:15;;;;;;;4.07;0.98;;;;;;;;;;12991181;19;20023;-65
2023/06/27 13:51:33;;;;;;;8.90;1.27;;;;;;;;;;12991015;19;20033;-65
2023/06/27 13:55:54;;;;;;;3.00;0.80;;;;;;;;;;12990881;19;20011;-65
2023/06/27 14:00:12;;;;;;;7.95;0.80;;;;;;;;;;12989905;19;20034;-65
2023/06/27 14:04:30;;;;;;;2.08;0.95;;;;;;;;;;12990334;19;20070;-65
2023/06/27 14:08:49;;;;;;;3.65;0.65;;;;;;;;;;12987413;19;20690;-65
2023/06/27 14:13:07;;;;;;;;;;;;;;;;;;12990038;19;20010;-65
2023/06/27 14:17:25;;;;;;;0.68;0.65;;;;;;;;;;12989948;19;20349;-64
2023/06/27 14:21:43;;;;;;;;;;;;;;;;;;12990080;19;20038;-65
2023/06/27 14:26:01;;;;;;;2.10;0.90;;;;;;;;;;12989650;19;19919;-65
2023/06/27 14:30:19;;;;;;;2.88;0.90;;;;;;;;;;12988851;19;20065;-66
2023/06/27 14:34:37;;;;;;;1.38;0.55;;;;;;;;;;12990892;19;20018;-65
2023/06/27 14:38:55;;;;;;;1.33;0.80;;;;;;;;;;12989430;19;20025;-66
2023/06/27 14:43:13;;;;;;;2.42;0.80;;;;;;;;;;12989335;19;20485;-65
2023/06/27 14:47:34;;;;;;;3.00;1.05;;;;;;;;;;12989552;19;20018;-65
2023/06/27 14:51:52;;;;;;;3.63;1.35;;;;;;;;;;12985747;19;20022;-66
2023/06/27 14:56:10;;;;;;;2.92;1.17;;;;;;;;;;12986416;19;20010;-66
2023/06/27 15:00:30;;;;;;;2.03;0.95;;;;;;;;;;12986644;19;20014;-67
2023/06/27 15:04:48;;;;;;;2.40;0.90;;;;;;;;;;12987673;19;20844;-66
2023/06/27 15:09:05;;;;;;;5.60;1.00;;;;;;;;;;12986177;19;20045;-66
2023/06/27 15:13:23;;;;;;;1.98;0.80;;;;;;;;;;12986566;19;20292;-66
2023/06/27 15:17:41;;;;;;;2.65;1.13;;;;;;;;;;12985686;19;20455;-66
2023/06/27 15:21:59;;;;;;;1.45;0.70;;;;;;;;;;12986041;19;20022;-66
2023/06/27 15:26:16;;;;;;;1.80;0.75;;;;;;;;;;12984039;19;20014;-67
2023/06/27 15:30:35;;;;;;;3.38;0.80;;;;;;;;;;12985024;19;20018;-66
2023/06/27 15:34:53;;;;;;;2.13;0.75;;;;;;;;;;12985106;19;20011;-66
2023/06/27 15:39:11;;;;;;;4.05;0.85;;;;;;;;;;12983415;19;20392;-65
2023/06/27 15:43:29;;;;;;;2.50;0.68;;;;;;;;;;12984973;19;20028;-66
2023/06/27 15:47:46;;;;;;;1.45;0.80;;;;;;;;;;12984976;19;20030;-65
2023/06/27 15:52:05;;;;;;;4.38;0.68;;;;;;;;;;12984497;19;20021;-67
2023/06/27 15:56:23;;;;;;;3.30;0.93;;;;;;;;;;12984624;19;20009;-65
2023/06/27 16:00:40;;;;;;;0.60;0.38;;;;;;;;;;12984152;19;20014;-67
2023/06/27 16:04:59;;;;;;;2.10;0.70;;;;;;;;;;12984839;19;20018;-66
2023/06/27 16:09:17;;;;;;;0.88;0.60;;;;;;;;;;12984904;19;20127;-64
2023/06/27 16:13:34;;;;;;;1.45;0.52;;;;;;;;;;12983454;19;20345;-65
2023/06/27 16:17:53;;;;;;;;;;;;;;;;;;12984041;19;20018;-65
2023/06/27 16:22:12;;;;;;;2.85;0.75;;;;;;;;;;12982589;19;19922;-64
2023/06/27 16:26:29;;;;;;;;;;;;;;;;;;12983239;19;20021;-66
2023/06/27 16:30:48;;;;;;;1.98;0.50;;;;;;;;;;12981180;19;20258;-66
2023/06/27 16:35:07;;;;;;;3.10;0.80;;;;;;;;;;12981651;19;20359;-65
2023/06/27 16:39:25;;;;;;;1.83;0.90;;;;;;;;;;12981566;19;20033;-65
2023/06/27 16:43:43;;;;;;;2.25;0.80;;;;;;;;;;12982080;19;20481;-65
2023/06/27 16:48:00;;;;;;;;;;;;;;;;;;12982521;19;20019;-64
2023/06/27 16:52:18;;;;;;;2.28;0.80;;;;;;;;;;12981796;19;20334;-65
2023/06/27 16:56:36;;;;;;;;;;;;;;;;;;12982966;19;20029;-66
2023/06/27 17:00:54;;;;;;;2.63;0.80;;;;;;;;;;12981909;19;20334;-65
2023/06/27 17:05:12;;;;;;;1.27;1.00;;;;;;;;;;12980074;19;20015;-66
2023/06/27 17:09:30;;;;;;;2.17;0.52;;;;;;;;;;12981136;19;20021;-65
2023/06/27 17:13:47;;;;;;;4.65;1.23;;;;;;;;;;12980751;19;20007;-65
2023/06/27 17:18:06;;;;;;;1.77;0.77;;;;;;;;;;12978825;19;20014;-66
2023/06/27 17:22:23;;;;;;;2.27;0.80;;;;;;;;;;12977321;19;20018;-65
2023/06/27 17:26:40;;;;;;;2.40;0.93;;;;;;;;;;12979571;19;20227;-64
2023/06/27 17:30:58;;;;;;;1.00;0.50;;;;;;;;;;12978273;19;20006;-65
2023/06/27 17:35:16;;;;;;;;;;;;;;;;;;12979328;19;20014;-65
2023/06/27 17:39:34;;;;;;;;;;;;;;;;;;12980177;19;20369;-65
2023/06/27 17:43:51;;;;;;;1.05;0.63;;;;;;;;;;12985067;19;19922;-66
2023/06/27 17:48:09;;;;;;;;;;;;;;;;;;12992130;19;20033;-64
2023/06/27 17:52:26;;;;;;;3.70;1.40;;;;;;;;;;12988592;19;20345;-65
2023/06/27 17:56:44;;;;;;;3.60;1.08;;;;;;;;;;12991238;19;20026;-65
2023/06/27 18:01:05;;;;;;;4.70;0.80;;;;;;;;;;12989997;19;20354;-64
2023/06/27 18:05:23;;;;;;;5.55;0.77;;;;;;;;;;12990607;19;20404;-66
2023/06/27 18:09:40;;;;;;;5.60;0.95;;;;;;;;;;12990378;19;20856;-65
2023/06/27 18:13:58;;;;;;;;;;;;;;;;;;12990703;19;20033;-65
2023/06/27 18:18:16;;;;;;;0.95;0.80;;;;;;;;;;12988868;19;19934;-65
2023/06/27 18:22:34;;;;;;;3.88;0.98;;;;;;;;;;12989037;19;20013;-65
2023/06/27 18:26:52;;;;;;;6.13;1.05;;;;;;;;;;12988764;19;20393;-66
2023/06/27 18:31:10;;;;;;;5.45;1.33;;;;;;;;;;12986893;19;20018;-65
2023/06/27 18:35:28;;;;;;;2.75;1.10;;;;;;;;;;12985881;19;20383;-66
2023/06/27 18:39:47;;;;;;;2.22;0.77;;;;;;;;;;12988121;19;20014;-66
2023/06/27 18:44:05;;;;;;;1.48;1.02;;;;;;;;;;12987784;19;20015;-66
2023/06/27 18:48:23;;;;;;;3.25;0.82;;;;;;;;;;12987884;19;20485;-65
2023/06/27 18:52:41;;;;;;;2.67;0.98;;;;;;;;;;12987806;19;20034;-66
2023/06/27 18:56:59;;;;;;;2.35;0.77;;;;;;;;;;12985495;19;20033;-66
2023/06/27 19:01:18;;;;;;;1.35;0.63;;;;;;;;;;12985996;19;20019;-65
2023/06/27 19:05:38;;;;;;;2.58;0.90;;;;;;;;;;12987281;19;20362;-65
2023/06/27 19:09:58;;;;;;;1.10;0.68;;;;;;;;;;12986731;19;20477;-65
2023/06/27 19:14:17;;;;;;;2.70;0.77;;;;;;;;;;12986312;19;20425;-65
2023/06/27 19:18:35;;;;;;;1.35;0.80;;;;;;;;;;12985553;19;20024;-65
2023/06/27 19:22:53;;;;;;;1.50;0.90;;;;;;;;;;12986032;19;20354;-64
2023/06/27 19:27:11;;;;;;;;;;;;;;;;;;12985749;19;20026;-65
2023/06/27 19:31:29;;;;;;;0.63;0.45;;;;;;;;;;12984845;19;19919;-65
2023/06/27 19:35:47;;;;;;;;;;;;;;;;;;12986110;19;20465;-65
2023/06/27 19:40:06;;;;;;;2.67;0.82;;;;;;;;;;12984217;19;19927;-64
2023/06/27 19:44:23;;;;;;;2.20;0.85;;;;;;;;;;12983853;19;20035;-65
2023/06/27 19:48:41;;;;;;;3.28;1.23;;;;;;;;;;12984657;19;20021;-64
2023/06/27 19:52:59;;;;;;;9.90;1.50;;;;;;;;;;12984287;19;20409;-65
2023/06/27 19:57:16;;;;;;;;;;;;;;;;;;12984187;19;20044;-66
2023/06/27 20:01:34;;;;;;;6.13;1.85;;;;;;;;;;12983974;19;19918;-66
2023/06/27 20:05:52;;;;;;;8.98;2.80;;;;;;;;;;12981369;19;20037;-65
2023/06/27 20:10:12;;;;;;;10.77;2.88;;;;;;;;;;12981874;19;20019;-65
2023/06/27 20:14:30;;;;;;;8.20;2.63;;;;;;;;;;12982308;19;20014;-65
2023/06/27 20:18:47;;;;;;;6.68;2.83;;;;;;;;;;12980777;19;20018;-65
2023/06/27 20:23:05;;;;;;;6.30;2.60;;;;;;;;;;12983837;19;20081;-65
2023/06/27 20:27:23;;;;;;;5.95;1.75;;;;;;;;;;12982518;19;20021;-65
2023/06/27 20:31:40;;;;;;;4.00;1.80;;;;;;;;;;12979555;19;20018;-64
2023/06/27 20:35:58;;;;;;;5.38;2.10;;;;;;;;;;12981156;19;20014;-64
2023/06/27 20:40:16;;;;;;;;;;;;;;;;;;12981642;19;20081;-65
2023/06/27 20:44:33;;;;;;;3.80;1.33;;;;;;;;;;12979223;19;19918;-65
2023/06/27 20:48:51;;;;;;;;;;;;;;;;;;12982843;19;20018;-64
2023/06/27 20:53:09;;;;;;;2.97;1.58;;;;;;;;;;12980879;19;19938;-66
2023/06/27 20:57:26;;;;;;;5.60;1.15;;;;;;;;;;12981121;19;20366;-65
2023/06/27 21:01:45;;;;;;;;;;;;;;;;;;12981503;19;20375;-65
2023/06/27 21:06:02;;;;;;;3.67;1.00;;;;;;;;;;12980753;19;19919;-64
2023/06/27 21:10:20;;;;;;;;;;;;;;;;;;12982069;19;20025;-63
2023/06/27 21:14:38;;;;;;;6.82;1.48;;;;;;;;;;12980594;19;19922;-62
2023/06/27 21:18:57;;;;;;;4.82;1.17;;;;;;;;;;12985751;19;20488;-63
2023/06/27 21:23:15;;;;;;;3.70;1.35;;;;;;;;;;12992368;19;20018;-63
2023/06/27 21:27:32;;;;;;;;;;;;;;;;;;12993326;19;20011;-63
2023/06/27 21:32:07;;;;;;;2.70;0.80;;;;;;;;;;12990662;19;19918;-62
2023/06/27 21:36:25;;;;;;;3.20;1.25;;;;;;;;;;12991991;19;20018;-62
2023/06/27 21:40:42;;;;;;;;;;;;;;;;;;12991497;19;20435;-62
2023/06/27 21:45:00;;;;;;;;;;;;;;;;;;12992373;19;19923;-62
2023/06/27 21:49:18;;;;;;;1.77;1.00;;;;;;;;;;12990627;19;19923;-63
2023/06/27 21:53:38;;;;;;;1.85;0.85;;;;;;;;;;12991647;19;20361;-62
2023/06/27 21:57:56;;;;;;;2.05;0.90;;;;;;;;;;12991368;19;20370;-62
2023/06/27 22:02:13;;;;;;;1.60;0.93;;;;;;;;;;12990028;19;20010;-62
2023/06/27 22:06:31;;;;;;;;;;;;;;;;;;12991453;19;20020;-62
2023/06/27 22:11:00;;;;;;;9.98;1.05;;;;;;;;;;12990493;19;19921;-62
2023/06/27 22:15:18;;;;;;;3.55;1.08;;;;;;;;;;12987542;19;20010;-62
2023/06/27 22:19:35;;;;;;;2.97;1.10;;;;;;;;;;12987155;19;20412;-63
2023/06/27 22:23:54;;;;;;;3.40;0.90;;;;;;;;;;12980180;19;20373;-62
2023/06/27 22:28:12;;;;;;;1.90;0.80;;;;;;;;;;12985013;19;20576;-62
2023/06/27 22:32:29;;;;;;;;;;;;;;;;;;12986973;19;20007;-62
2023/06/27 22:36:47;;;;;;;1.95;0.80;;;;;;;;;;12988897;19;19919;-62
2023/06/27 22:41:05;;;;;;;;;;;;;;;;;;12988776;19;20025;-64
2023/06/27 22:45:24;;;;;;;2.70;0.75;;;;;;;;;;12988944;19;19922;-63
2023/06/27 22:49:42;;;;;;;1.02;0.50;;;;;;;;;;12988030;19;20018;-63
2023/06/27 22:54:00;;;;;;;0.82;0.60;;;;;;;;;;12987716;19;20027;-63
2023/06/27 22:58:18;;;;;;;1.23;0.75;;;;;;;;;;12987596;19;20022;-63
2023/06/27 23:02:36;;;;;;;2.00;0.98;;;;;;;;;;12985949;19;20369;-63
2023/06/27 23:06:55;;;;;;;2.47;0.90;;;;;;;;;;12987322;19;20010;-63
2023/06/27 23:11:12;;;;;;;1.35;0.75;;;;;;;;;;12986830;19;20010;-63
2023/06/27 23:15:30;;;;;;;;;;;;;;;;;;12987514;19;20374;-63
2023/06/27 23:19:51;;;;;;;;;;;;;;;;;;12986904;19;20362;-63
2023/06/27 23:24:10;;;;;;;2.20;1.00;;;;;;;;;;12985850;19;19923;-63
2023/06/27 23:28:27;;;;;;;1.48;0.80;;;;;;;;;;12986008;19;20960;-63
2023/06/27 23:32:54;;;;;;;2.17;0.75;;;;;;;;;;12985111;19;20469;-63
2023/06/27 23:37:13;;;;;;;;;;;;;;;;;;12985743;19;20016;-63
2023/06/27 23:41:31;;;;;;;3.17;1.20;;;;;;;;;;12983813;19;19911;-63
2023/06/27 23:45:49;;;;;;;3.22;1.08;;;;;;;;;;12985395;19;20030;-63
2023/06/27 23:50:07;;;;;;;1.70;0.95;;;;;;;;;;12983980;19;20021;-66
2023/06/27 23:54:26;;;;;;;2.67;1.40;;;;;;;;;;12984592;19;20014;-63
2023/06/27 23:58:48;;;;;;;1.42;0.90;;;;;;;;;;12983898;19;20007;-63
